createdAt,value
2022-12-19T00:17:06.720Z,1.21
2022-12-19T00:37:06.690Z,1.37
2022-12-19T00:57:06.673Z,1.76
2022-12-19T02:17:06.541Z,2.86
2022-12-19T02:37:06.538Z,3.16
2022-12-19T02:57:06.515Z,3.52
2022-12-19T03:17:06.527Z,3.87
2022-12-19T03:37:06.473Z,4.18
2022-12-19T03:57:06.456Z,4.2
2022-12-19T04:17:06.438Z,4.27
2022-12-19T04:37:06.403Z,4.3
2022-12-19T05:17:06.346Z,4.48
2022-12-19T05:37:06.316Z,4.37
2022-12-19T05:57:06.281Z,4.48
2022-12-19T06:17:06.262Z,4.61
2022-12-19T06:37:08.217Z,4.65
2022-12-19T06:57:06.193Z,4.69
2022-12-19T07:17:06.149Z,4.93
2022-12-19T07:57:06.112Z,5.62
2022-12-19T08:17:21.435Z,5.98
2022-12-19T08:57:06.039Z,6.43
2022-12-19T09:17:06.005Z,6.55
2022-12-19T09:37:05.960Z,6.59
2022-12-19T09:57:05.944Z,6.82
2022-12-19T10:17:23.963Z,7.21
2022-12-19T10:57:05.878Z,7.79
2022-12-19T11:19:18.760Z,8.1
2022-12-19T11:37:05.763Z,8.33
2022-12-19T11:57:05.729Z,8.27
2022-12-19T12:38:14.005Z,8.52
2022-12-19T12:57:05.637Z,8.78
2022-12-19T13:17:05.665Z,8.72
2022-12-19T13:57:09.422Z,8.92
2022-12-19T14:37:05.553Z,8.87
2022-12-19T14:57:05.890Z,8.87
2022-12-19T15:17:05.420Z,8.81
2022-12-19T15:37:05.405Z,8.82
2022-12-19T15:57:05.344Z,8.92
2022-12-19T16:17:05.349Z,8.98
2022-12-19T16:37:05.301Z,8.99
2022-12-19T16:57:05.232Z,8.81
2022-12-19T17:17:05.293Z,8.82
2022-12-19T17:37:05.249Z,8.8
2022-12-19T17:57:05.147Z,8.71
2022-12-19T18:17:05.270Z,8.98
2022-12-19T18:37:05.079Z,9.21
2022-12-19T18:57:05.044Z,9.72
2022-12-19T19:17:05.037Z,9.61
2022-12-19T19:57:04.937Z,10.16
2022-12-19T20:17:04.911Z,9.83
2022-12-19T20:37:04.872Z,9.86
2022-12-19T20:57:04.829Z,10.03
2022-12-19T21:17:04.797Z,10.06
2022-12-19T21:37:04.799Z,10.22
2022-12-19T21:57:04.724Z,10.4
2022-12-19T22:17:04.737Z,10.62
2022-12-19T22:37:04.667Z,10.65
2022-12-19T22:57:04.604Z,10.61
2022-12-19T23:17:04.631Z,10.6
2022-12-19T23:37:12.398Z,10.46
2022-12-19T23:57:04.518Z,10.78
